createdAt,value
2022-08-19T00:02:01.963Z,20.90
2022-08-19T00:04:37.689Z,20.95
2022-08-19T00:07:10.464Z,20.96
2022-08-19T00:09:42.960Z,20.95
2022-08-19T00:12:16.897Z,20.94
2022-08-19T00:14:49.442Z,20.91
2022-08-19T00:17:22.312Z,20.89
2022-08-19T00:19:54.806Z,20.88
2022-08-19T00:22:29.616Z,20.87
2022-08-19T00:25:02.356Z,20.81
2022-08-19T00:27:37.664Z,20.80
2022-08-19T00:30:11.615Z,20.79
2022-08-19T00:32:44.462Z,20.76
2022-08-19T00:35:18.499Z,20.73
2022-08-19T00:37:51.834Z,20.68
2022-08-19T00:40:24.577Z,20.66
2022-08-19T00:42:58.457Z,20.60
2022-08-19T00:45:36.884Z,20.55
2022-08-19T00:48:14.713Z,20.53
2022-08-19T00:50:52.070Z,20.53
2022-08-19T00:53:28.609Z,20.52
2022-08-19T00:56:03.581Z,20.58
2022-08-19T00:58:37.733Z,20.60
2022-08-19T01:01:10.306Z,20.62
2022-08-19T01:03:57.324Z,20.64
2022-08-19T01:06:33.644Z,20.62
2022-08-19T01:09:06.912Z,20.60
2022-08-19T01:11:42.148Z,20.57
2022-08-19T01:14:17.952Z,20.57
2022-08-19T01:16:55.506Z,20.58
2022-08-19T01:19:31.936Z,20.57
2022-08-19T01:22:33.306Z,20.58
2022-08-19T01:25:15.025Z,20.57
2022-08-19T01:27:50.237Z,20.58
2022-08-19T01:30:28.971Z,20.57
2022-08-19T01:33:02.133Z,20.54
2022-08-19T01:35:36.570Z,20.57
2022-08-19T01:38:20.338Z,20.59
2022-08-19T01:40:53.854Z,20.58
2022-08-19T01:43:26.733Z,20.57
2022-08-19T01:45:59.202Z,20.57
2022-08-19T01:48:36.325Z,20.54
2022-08-19T01:51:11.637Z,20.55
2022-08-19T01:53:48.755Z,20.52
2022-08-19T01:56:21.799Z,20.53
2022-08-19T01:58:57.262Z,20.53
2022-08-19T02:01:33.063Z,20.55
2022-08-19T02:04:06.815Z,20.55
2022-08-19T02:06:39.450Z,20.52
2022-08-19T02:09:13.394Z,20.49
2022-08-19T02:11:46.012Z,20.48
2022-08-19T02:14:18.642Z,20.43
2022-08-19T02:16:51.182Z,20.39
2022-08-19T02:19:23.730Z,20.40
2022-08-19T02:21:56.261Z,20.40
2022-08-19T02:24:30.151Z,20.39
2022-08-19T02:27:02.648Z,20.38
2022-08-19T02:29:35.361Z,20.37
2022-08-19T02:32:08.784Z,20.38
2022-08-19T02:34:41.549Z,20.36
2022-08-19T02:37:35.035Z,20.36
2022-08-19T02:40:12.535Z,20.39
2022-08-19T02:42:46.818Z,20.35
2022-08-19T02:45:19.842Z,20.38
2022-08-19T02:47:52.328Z,20.35
2022-08-19T02:50:24.876Z,20.34
2022-08-19T02:52:57.504Z,20.31
2022-08-19T02:55:31.390Z,20.27
2022-08-19T02:58:19.848Z,20.20
2022-08-19T03:00:56.331Z,20.14
2022-08-19T03:03:29.168Z,20.11
2022-08-19T03:06:10.364Z,20.08
2022-08-19T03:08:45.177Z,20.04
2022-08-19T03:11:22.175Z,20.01
2022-08-19T03:13:55.670Z,19.99
2022-08-19T03:16:33.375Z,19.94
2022-08-19T03:19:06.195Z,19.93
2022-08-19T03:21:38.734Z,19.85
2022-08-19T03:24:11.791Z,19.87
2022-08-19T03:26:48.773Z,19.87
2022-08-19T03:29:30.915Z,19.83
2022-08-19T03:32:06.100Z,19.81
2022-08-19T03:34:39.417Z,19.79
2022-08-19T03:37:15.668Z,19.77
2022-08-19T03:39:48.287Z,19.78
2022-08-19T03:42:38.464Z,19.74
2022-08-19T03:45:14.899Z,19.75
2022-08-19T03:47:47.346Z,19.73
2022-08-19T03:50:20.558Z,19.71
2022-08-19T03:52:53.870Z,19.64
2022-08-19T03:55:26.565Z,19.62
2022-08-19T03:58:00.580Z,19.54
2022-08-19T04:00:33.894Z,19.47
2022-08-19T04:03:06.722Z,19.36
2022-08-19T04:05:39.314Z,19.30
2022-08-19T04:08:13.914Z,19.23
2022-08-19T04:10:46.742Z,19.18
2022-08-19T04:13:20.831Z,19.17
2022-08-19T04:15:54.704Z,19.16
2022-08-19T04:18:27.367Z,19.15
2022-08-19T04:21:00.521Z,19.19
2022-08-19T04:23:33.901Z,19.21
2022-08-19T04:26:06.823Z,19.24
2022-08-19T04:28:44.115Z,19.24
2022-08-19T04:31:18.576Z,19.24
2022-08-19T04:33:51.762Z,19.24
2022-08-19T04:36:26.875Z,19.24
2022-08-19T04:39:01.956Z,19.28
2022-08-19T04:41:53.727Z,19.33
2022-08-19T04:44:32.462Z,19.36
2022-08-19T04:47:10.951Z,19.41
2022-08-19T04:49:44.317Z,19.45
2022-08-19T04:52:16.847Z,19.48
2022-08-19T04:54:49.629Z,19.53
2022-08-19T04:57:22.799Z,19.61
2022-08-19T04:59:58.600Z,19.76
2022-08-19T05:02:31.204Z,19.86
2022-08-19T05:05:04.412Z,19.97
2022-08-19T05:07:37.711Z,20.11
2022-08-19T05:10:13.816Z,20.23
2022-08-19T05:12:46.417Z,20.38
2022-08-19T05:15:20.575Z,20.54
2022-08-19T05:18:11.757Z,20.69
2022-08-19T05:21:02.880Z,20.77
2022-08-19T05:23:35.421Z,20.78
2022-08-19T05:26:10.462Z,20.70
2022-08-19T05:28:43.126Z,20.69
2022-08-19T05:31:17.300Z,20.68
2022-08-19T05:33:51.571Z,20.64
2022-08-19T05:36:24.047Z,20.57
2022-08-19T05:38:57.089Z,20.56
2022-08-19T05:41:31.598Z,20.53
2022-08-19T05:44:07.689Z,20.54
2022-08-19T05:46:44.211Z,20.54
2022-08-19T05:49:17.378Z,20.64
2022-08-19T05:51:50.525Z,20.68
2022-08-19T05:54:24.278Z,20.73
2022-08-19T05:56:56.926Z,20.88
2022-08-19T05:59:29.817Z,20.95
2022-08-19T06:02:07.629Z,21.04
2022-08-19T06:04:40.628Z,21.14
2022-08-19T06:07:13.246Z,21.24
2022-08-19T06:09:59.035Z,21.31
2022-08-19T06:12:36.722Z,21.42
2022-08-19T06:15:12.522Z,21.47
2022-08-19T06:17:46.539Z,21.58
2022-08-19T06:20:34.414Z,21.65
2022-08-19T06:23:12.809Z,21.75
2022-08-19T06:25:49.639Z,21.81
2022-08-19T06:28:23.356Z,21.87
2022-08-19T06:30:56.088Z,21.98
2022-08-19T06:33:30.049Z,22.06
2022-08-19T06:36:03.121Z,22.12
2022-08-19T06:38:35.752Z,22.15
2022-08-19T06:41:08.387Z,22.15
2022-08-19T06:43:43.722Z,22.16
2022-08-19T06:46:17.832Z,22.14
2022-08-19T06:48:54.426Z,22.14
2022-08-19T06:54:04.442Z,22.01
2022-08-19T06:56:36.981Z,22.01
2022-08-19T06:59:12.211Z,22.00
2022-08-19T07:01:48.177Z,22.00
2022-08-19T07:04:25.156Z,22.05
2022-08-19T07:06:59.869Z,22.13
2022-08-19T07:09:59.215Z,22.25
2022-08-19T07:12:36.123Z,22.34
2022-08-19T07:15:12.203Z,22.41
2022-08-19T07:17:44.797Z,22.43
2022-08-19T07:20:22.035Z,22.50
2022-08-19T07:23:01.309Z,22.55
2022-08-19T07:25:33.751Z,22.62
2022-08-19T07:28:06.599Z,22.67
2022-08-19T07:30:56.538Z,22.70
2022-08-19T07:33:31.291Z,22.77
2022-08-19T07:36:08.981Z,22.82
2022-08-19T07:38:46.344Z,22.90
2022-08-19T07:41:21.345Z,22.95
2022-08-19T07:43:54.400Z,22.98
2022-08-19T07:46:31.412Z,22.98
2022-08-19T07:49:04.620Z,22.96
2022-08-19T07:51:38.770Z,22.95
2022-08-19T07:54:12.830Z,22.95
2022-08-19T07:56:45.800Z,23.03
2022-08-19T07:59:18.752Z,23.07
2022-08-19T08:01:52.384Z,23.08
2022-08-19T08:04:43.411Z,23.14
2022-08-19T08:07:36.313Z,23.16
2022-08-19T08:10:12.596Z,23.16
2022-08-19T08:13:08.932Z,23.16
2022-08-19T08:15:43.767Z,23.18
2022-08-19T08:18:16.317Z,23.25
2022-08-19T08:20:48.877Z,23.35
2022-08-19T08:23:23.498Z,23.43
2022-08-19T08:25:59.076Z,23.51
2022-08-19T08:28:31.605Z,23.55
2022-08-19T08:31:09.651Z,23.61
2022-08-19T08:33:43.399Z,23.68
2022-08-19T08:36:16.749Z,23.70
2022-08-19T08:38:50.655Z,23.73
2022-08-19T08:41:29.571Z,23.73
2022-08-19T08:44:05.688Z,23.82
2022-08-19T08:46:43.391Z,23.86
2022-08-19T08:49:27.497Z,23.87
2022-08-19T08:52:04.486Z,23.88
2022-08-19T08:54:48.941Z,23.89
2022-08-19T08:57:40.601Z,23.90
2022-08-19T09:00:19.427Z,23.87
2022-08-19T09:02:52.280Z,23.90
2022-08-19T09:05:37.706Z,23.89
2022-08-19T09:08:24.268Z,23.87
2022-08-19T09:10:58.701Z,23.87
2022-08-19T09:13:37.982Z,23.82
2022-08-19T09:16:14.178Z,23.76
2022-08-19T09:18:54.026Z,23.79
2022-08-19T09:21:33.124Z,23.79
2022-08-19T09:24:07.354Z,23.81
2022-08-19T09:26:52.318Z,23.84
2022-08-19T09:29:25.755Z,23.87
2022-08-19T09:31:58.239Z,23.83
2022-08-19T09:34:30.740Z,23.94
2022-08-19T09:37:10.975Z,23.95
2022-08-19T09:39:43.914Z,23.99
2022-08-19T09:42:29.996Z,24.04
2022-08-19T09:45:05.147Z,24.09
2022-08-19T09:47:43.036Z,24.08
2022-08-19T09:50:16.577Z,24.09
2022-08-19T09:52:57.455Z,24.09
2022-08-19T09:55:31.196Z,24.06
2022-08-19T09:58:06.337Z,24.07
2022-08-19T10:00:39.611Z,24.02
2022-08-19T10:03:12.697Z,24.02
2022-08-19T10:05:55.106Z,24.01
2022-08-19T10:08:30.857Z,23.99
2022-08-19T10:11:27.509Z,23.97
2022-08-19T10:13:59.259Z,23.93
2022-08-19T10:16:31.859Z,23.90
2022-08-19T10:19:10.502Z,23.86
2022-08-19T10:21:43.418Z,23.83
2022-08-19T10:24:16.147Z,23.81
2022-08-19T10:26:57.271Z,23.77
2022-08-19T10:29:35.518Z,23.74
2022-08-19T10:32:10.143Z,23.76
2022-08-19T10:34:48.931Z,23.80
2022-08-19T10:37:28.808Z,23.82
2022-08-19T10:40:06.941Z,23.84
2022-08-19T10:42:39.890Z,23.85
2022-08-19T10:45:13.761Z,23.89
2022-08-19T10:47:47.887Z,23.95
2022-08-19T10:50:39.489Z,23.99
2022-08-19T10:53:12.016Z,24.02
2022-08-19T10:56:04.965Z,24.01
2022-08-19T10:58:37.373Z,24.02
2022-08-19T11:01:11.589Z,23.99
2022-08-19T11:03:46.355Z,23.97
2022-08-19T11:06:22.688Z,23.91
2022-08-19T11:08:59.684Z,23.91
2022-08-19T11:11:33.328Z,23.89
2022-08-19T11:14:14.410Z,23.89
2022-08-19T11:16:51.025Z,23.88
2022-08-19T11:19:24.941Z,23.83
2022-08-19T11:21:57.965Z,23.83
2022-08-19T11:24:32.984Z,23.78
2022-08-19T11:27:07.659Z,23.73
2022-08-19T11:29:40.529Z,23.68
2022-08-19T11:32:14.608Z,23.58
2022-08-19T11:34:47.173Z,23.62
2022-08-19T11:37:19.785Z,23.62
2022-08-19T11:39:53.699Z,23.59
2022-08-19T11:42:45.222Z,23.54
2022-08-19T11:45:18.076Z,23.52
2022-08-19T11:47:52.104Z,23.49
2022-08-19T11:50:25.558Z,23.47
2022-08-19T11:52:58.541Z,23.45
2022-08-19T11:55:31.189Z,23.39
2022-08-19T11:58:05.042Z,23.37
2022-08-19T12:00:37.849Z,23.35
2022-08-19T12:03:12.578Z,23.30
2022-08-19T12:05:45.275Z,23.26
2022-08-19T12:08:18.509Z,23.21
2022-08-19T12:10:51.014Z,23.18
2022-08-19T12:13:23.553Z,23.15
2022-08-19T12:15:56.125Z,23.04
2022-08-19T12:18:30.122Z,23.06
2022-08-19T12:21:02.585Z,23.01
2022-08-19T12:23:35.121Z,22.96
2022-08-19T12:26:09.742Z,22.93
2022-08-19T12:28:42.618Z,22.86
2022-08-19T12:31:15.550Z,22.83
2022-08-19T12:33:49.542Z,22.79
2022-08-19T12:36:23.260Z,22.71
2022-08-19T12:38:55.705Z,22.62
2022-08-19T12:41:28.220Z,22.54
2022-08-19T12:44:00.696Z,22.47
2022-08-19T12:46:33.850Z,22.40
2022-08-19T12:49:43.567Z,22.35
2022-08-19T12:52:01.517Z,22.32
2022-08-19T12:54:34.329Z,22.30
2022-08-19T12:57:09.020Z,22.29
2022-08-19T12:59:43.414Z,22.25
2022-08-19T13:02:15.905Z,22.28
2022-08-19T13:04:49.909Z,22.26
2022-08-19T13:07:22.740Z,22.29
2022-08-19T13:09:55.216Z,22.29
2022-08-19T13:12:27.841Z,22.31
2022-08-19T13:15:00.412Z,22.33
2022-08-19T13:17:34.946Z,22.35
2022-08-19T13:20:11.430Z,22.40
2022-08-19T13:22:45.757Z,22.41
2022-08-19T13:25:21.010Z,22.39
2022-08-19T13:27:54.252Z,22.34
2022-08-19T13:30:46.028Z,22.30
2022-08-19T13:33:19.018Z,22.19
2022-08-19T13:35:58.883Z,22.16
2022-08-19T13:38:31.617Z,22.12
2022-08-19T13:41:11.102Z,22.10
2022-08-19T13:43:45.881Z,22.05
2022-08-19T13:46:18.572Z,21.95
2022-08-19T13:48:51.232Z,21.86
2022-08-19T13:51:25.128Z,21.77
2022-08-19T13:53:57.660Z,21.70
2022-08-19T13:56:30.390Z,21.61
2022-08-19T13:59:03.115Z,21.62
2022-08-19T14:01:36.032Z,21.65
2022-08-19T14:04:09.160Z,21.65
2022-08-19T14:06:43.048Z,21.63
2022-08-19T14:09:15.737Z,21.60
2022-08-19T14:11:48.258Z,21.58
2022-08-19T14:14:20.753Z,21.55
2022-08-19T14:16:53.559Z,21.47
2022-08-19T14:19:26.306Z,21.48
2022-08-19T14:22:04.636Z,21.48
2022-08-19T14:24:38.509Z,21.42
2022-08-19T14:27:11.004Z,21.43
2022-08-19T14:29:43.577Z,21.44
2022-08-19T14:32:16.792Z,21.47
2022-08-19T14:34:49.595Z,21.48
2022-08-19T14:37:23.814Z,21.52
2022-08-19T14:39:57.851Z,21.54
2022-08-19T14:42:30.627Z,21.58
2022-08-19T14:45:06.255Z,21.56
2022-08-19T14:47:46.902Z,21.59
2022-08-19T14:50:20.728Z,21.61
2022-08-19T14:53:00.469Z,21.65
2022-08-19T14:55:33.209Z,21.62
2022-08-19T14:58:08.172Z,21.60
2022-08-19T15:00:41.803Z,21.54
2022-08-19T15:03:14.340Z,21.59
2022-08-19T15:05:47.185Z,21.59
2022-08-19T15:08:25.830Z,21.59
2022-08-19T15:10:59.581Z,21.60
2022-08-19T15:13:32.029Z,21.61
2022-08-19T15:16:04.996Z,21.60
2022-08-19T15:18:37.813Z,21.59
2022-08-19T15:21:10.453Z,21.56
2022-08-19T15:23:45.586Z,21.54
2022-08-19T15:26:20.439Z,21.47
2022-08-19T15:28:53.171Z,21.39
2022-08-19T15:31:28.392Z,21.27
2022-08-19T15:34:01.649Z,21.13
2022-08-19T15:36:35.498Z,21.01
2022-08-19T15:39:10.449Z,20.93
2022-08-19T15:41:43.562Z,20.85
2022-08-19T15:44:19.466Z,20.80
2022-08-19T15:46:51.974Z,20.77
2022-08-19T15:49:24.497Z,20.73
2022-08-19T15:51:58.266Z,20.69
2022-08-19T15:54:32.179Z,20.64
2022-08-19T15:57:23.447Z,20.67
2022-08-19T16:00:14.718Z,20.63
2022-08-19T16:03:08.060Z,20.66
2022-08-19T16:05:59.396Z,20.66
2022-08-19T16:08:31.898Z,20.64
2022-08-19T16:11:23.365Z,20.62
2022-08-19T16:13:58.042Z,20.65
2022-08-19T16:16:33.904Z,20.65
2022-08-19T16:19:10.410Z,20.64
2022-08-19T16:21:45.797Z,20.62
2022-08-19T16:24:20.985Z,20.62
2022-08-19T16:26:55.978Z,20.63
2022-08-19T16:29:34.725Z,20.63
2022-08-19T16:32:12.472Z,20.62
2022-08-19T16:34:45.998Z,20.59
2022-08-19T16:37:18.752Z,20.58
2022-08-19T16:39:53.276Z,20.58
2022-08-19T16:42:27.267Z,20.59
2022-08-19T16:44:59.971Z,20.59
2022-08-19T16:47:32.404Z,20.58
2022-08-19T16:50:07.674Z,20.56
2022-08-19T16:52:40.385Z,20.52
2022-08-19T16:55:13.191Z,20.47
2022-08-19T16:57:47.168Z,20.52
2022-08-19T17:00:20.689Z,20.53
2022-08-19T17:02:53.419Z,20.56
2022-08-19T17:05:26.116Z,20.58
2022-08-19T17:07:58.637Z,20.60
2022-08-19T17:10:31.327Z,20.60
2022-08-19T17:13:05.932Z,20.59
2022-08-19T17:15:38.681Z,20.65
2022-08-19T17:18:13.522Z,20.65
2022-08-19T17:20:47.981Z,20.69
2022-08-19T17:23:22.086Z,20.70
2022-08-19T17:26:18.425Z,20.70
2022-08-19T17:28:54.940Z,20.76
2022-08-19T17:31:30.195Z,20.81
2022-08-19T17:34:03.569Z,20.84
2022-08-19T17:36:36.522Z,20.88
2022-08-19T17:39:09.150Z,20.89
2022-08-19T17:41:43.029Z,20.94
2022-08-19T17:44:19.071Z,20.98
2022-08-19T17:46:53.770Z,21.02
2022-08-19T17:49:26.486Z,21.05
2022-08-19T17:51:59.879Z,21.07
2022-08-19T17:54:33.854Z,21.07
2022-08-19T17:57:06.728Z,21.08
2022-08-19T17:59:40.886Z,21.15
2022-08-19T18:02:15.302Z,21.16
2022-08-19T18:04:48.884Z,21.18
2022-08-19T18:07:22.115Z,21.21
2022-08-19T18:09:55.929Z,21.22
2022-08-19T18:12:28.412Z,21.22
2022-08-19T18:15:05.622Z,21.23
2022-08-19T18:17:38.410Z,21.23
2022-08-19T18:20:13.648Z,21.18
2022-08-19T18:22:48.753Z,21.25
2022-08-19T18:25:24.420Z,21.26
2022-08-19T18:27:59.915Z,21.27
2022-08-19T18:30:34.607Z,21.25
2022-08-19T18:33:14.419Z,21.26
2022-08-19T18:35:49.199Z,21.28
2022-08-19T18:38:41.996Z,21.29
2022-08-19T18:41:34.144Z,21.25
2022-08-19T18:44:25.240Z,21.28
2022-08-19T18:47:21.371Z,21.26
2022-08-19T18:49:53.942Z,21.25
2022-08-19T18:52:27.361Z,21.23
2022-08-19T18:54:59.885Z,21.24
2022-08-19T18:57:32.450Z,21.23
2022-08-19T19:00:06.213Z,21.18
2022-08-19T19:02:40.182Z,21.18
2022-08-19T19:05:14.004Z,21.19
2022-08-19T19:07:46.506Z,21.18
2022-08-19T19:10:19.468Z,21.15
2022-08-19T19:12:52.063Z,21.14
2022-08-19T19:15:24.588Z,21.09
2022-08-19T19:18:00.728Z,21.06
2022-08-19T19:20:36.271Z,21.04
2022-08-19T19:23:09.277Z,21.01
2022-08-19T19:25:49.890Z,20.96
2022-08-19T19:28:27.659Z,20.94
2022-08-19T19:31:00.193Z,20.93
2022-08-19T19:33:34.529Z,20.92
2022-08-19T19:36:07.454Z,20.90
2022-08-19T19:38:48.039Z,20.91
2022-08-19T19:41:26.239Z,20.90
2022-08-19T19:44:29.799Z,20.86
2022-08-19T19:46:55.932Z,20.82
2022-08-19T19:49:32.169Z,20.81
2022-08-19T19:52:04.911Z,20.78
2022-08-19T19:54:38.610Z,20.76
2022-08-19T19:57:20.312Z,20.74
2022-08-19T19:59:54.330Z,20.73
2022-08-19T20:02:27.169Z,20.71
2022-08-19T20:05:01.599Z,20.70
2022-08-19T20:07:54.923Z,20.71
2022-08-19T20:10:28.104Z,20.69
2022-08-19T20:13:02.555Z,20.66
2022-08-19T20:15:41.722Z,20.67
2022-08-19T20:18:15.058Z,20.66
2022-08-19T20:20:50.281Z,20.64
2022-08-19T20:23:23.878Z,20.62
2022-08-19T20:25:56.436Z,20.59
2022-08-19T20:28:30.259Z,20.56
2022-08-19T20:31:03.049Z,20.55
2022-08-19T20:33:38.269Z,20.52
2022-08-19T20:36:12.262Z,20.52
2022-08-19T20:38:44.735Z,20.51
2022-08-19T20:41:17.836Z,20.50
2022-08-19T20:43:50.599Z,20.51
2022-08-19T20:46:23.093Z,20.51
2022-08-19T20:48:56.093Z,20.51
2022-08-19T20:51:32.517Z,20.50
2022-08-19T20:54:05.425Z,20.52
2022-08-19T20:56:38.225Z,20.54
2022-08-19T20:59:12.069Z,20.54
2022-08-19T21:01:44.599Z,20.61
2022-08-19T21:04:17.238Z,20.62
2022-08-19T21:06:51.298Z,20.68
2022-08-19T21:09:23.739Z,20.69
2022-08-19T21:11:56.386Z,20.72
2022-08-19T21:14:28.908Z,20.75
2022-08-19T21:17:01.341Z,20.75
2022-08-19T21:19:33.886Z,20.77
2022-08-19T21:22:07.919Z,20.75
2022-08-19T21:24:42.403Z,20.78
2022-08-19T21:27:14.838Z,20.79
2022-08-19T21:29:47.349Z,20.79
2022-08-19T21:32:20.134Z,20.80
2022-08-19T21:34:53.082Z,20.81
2022-08-19T21:37:27.018Z,20.80
2022-08-19T21:39:59.904Z,20.81
2022-08-19T21:42:32.444Z,20.80
2022-08-19T21:45:06.213Z,20.78
2022-08-19T21:47:38.770Z,20.75
2022-08-19T21:50:12.496Z,20.74
2022-08-19T21:52:47.022Z,20.73
2022-08-19T21:55:20.287Z,20.70
2022-08-19T21:57:52.818Z,20.69
2022-08-19T22:00:26.144Z,20.70
2022-08-19T22:02:59.069Z,20.69
2022-08-19T22:05:33.477Z,20.69
2022-08-19T22:08:07.389Z,20.71
2022-08-19T22:10:40.062Z,20.70
2022-08-19T22:13:12.740Z,20.70
2022-08-19T22:15:46.205Z,20.68
2022-08-19T22:18:19.070Z,20.69
2022-08-19T22:20:51.682Z,20.69
2022-08-19T22:23:25.676Z,20.67
2022-08-19T22:25:58.261Z,20.66
2022-08-19T22:28:30.717Z,20.65
2022-08-19T22:31:03.696Z,20.61
2022-08-19T22:33:37.538Z,20.60
2022-08-19T22:36:10.228Z,20.59
2022-08-19T22:38:44.114Z,20.57
2022-08-19T22:41:16.565Z,20.57
2022-08-19T22:43:49.038Z,20.54
2022-08-19T22:46:21.745Z,20.55
2022-08-19T22:48:56.710Z,20.57
2022-08-19T22:51:52.468Z,20.56
2022-08-19T22:54:26.479Z,20.56
2022-08-19T22:56:59.158Z,20.56
2022-08-19T22:59:31.632Z,20.56
2022-08-19T23:02:04.865Z,20.54
2022-08-19T23:04:37.892Z,20.57
2022-08-19T23:07:10.505Z,20.54
2022-08-19T23:09:44.570Z,20.53
2022-08-19T23:12:26.807Z,20.51
2022-08-19T23:15:02.377Z,20.52
2022-08-19T23:17:36.711Z,20.51
2022-08-19T23:20:11.409Z,20.51
2022-08-19T23:22:46.377Z,20.51
2022-08-19T23:25:23.948Z,20.49
2022-08-19T23:28:15.358Z,20.48
2022-08-19T23:30:49.363Z,20.48
2022-08-19T23:33:25.199Z,20.46
2022-08-19T23:36:00.033Z,20.42
2022-08-19T23:38:32.911Z,20.41
2022-08-19T23:41:09.073Z,20.42
2022-08-19T23:43:43.162Z,20.40
2022-08-19T23:46:27.463Z,20.38
2022-08-19T23:49:01.416Z,20.40
2022-08-19T23:51:33.806Z,20.37
2022-08-19T23:54:06.395Z,20.37
2022-08-19T23:56:40.394Z,20.36
2022-08-19T23:59:13.024Z,20.35
